Terminal Aerodrome Forecast
Issued by NWS

Current Version | Previous Version | Text Only | Print | Product List | Glossary Off
Versions: 1 2 3 4 5 6 7 8 9 10 11 12 13 14 15 16 17 18 19 20

718
FTUS41 KRLX 052335
TAFCKB
TAF
KCKB 052335Z 0600/0624 00000KT P6SM FEW150
     FM061500 20004KT P6SM BKN040
     FM062100 24006KT P6SM BKN200=

USA.gov is the U.S. government's official web portal to all federal, state and local government web resources and services.